sensor_id;sensor_type;location;lat;lon;timestamp;temperature;humidity
3300;DHT22;1662;49.310;8.134;2023-03-23T00:01:13;14.80;99.90
3300;DHT22;1662;49.310;8.134;2023-03-23T00:03:40;14.90;99.90
3300;DHT22;1662;49.310;8.134;2023-03-23T00:06:07;14.90;99.90
3300;DHT22;1662;49.310;8.134;2023-03-23T00:08:39;15.00;99.90
3300;DHT22;1662;49.310;8.134;2023-03-23T00:11:19;15.00;99.90
3300;DHT22;1662;49.310;8.134;2023-03-23T00:13:49;14.80;99.90
3300;DHT22;1662;49.310;8.134;2023-03-23T00:16:20;14.60;99.90
3300;DHT22;1662;49.310;8.134;2023-03-23T00:18:55;14.50;99.90
3300;DHT22;1662;49.310;8.134;2023-03-23T00:21:26;14.40;99.90
3300;DHT22;1662;49.310;8.134;2023-03-23T00:26:37;14.20;99.90
3300;DHT22;1662;49.310;8.134;2023-03-23T00:29:10;14.10;99.90
3300;DHT22;1662;49.310;8.134;2023-03-23T00:31:39;14.10;99.90
3300;DHT22;1662;49.310;8.134;2023-03-23T00:34:05;14.10;99.90
3300;DHT22;1662;49.310;8.134;2023-03-23T00:36:32;14.10;99.90
3300;DHT22;1662;49.310;8.134;2023-03-23T00:39:01;14.00;99.90
3300;DHT22;1662;49.310;8.134;2023-03-23T00:41:27;14.00;99.90
3300;DHT22;1662;49.310;8.134;2023-03-23T00:43:57;14.10;99.90
3300;DHT22;1662;49.310;8.134;2023-03-23T00:46:26;14.00;99.90
3300;DHT22;1662;49.310;8.134;2023-03-23T00:48:54;14.00;99.90
3300;DHT22;1662;49.310;8.134;2023-03-23T00:51:20;14.10;99.90
3300;DHT22;1662;49.310;8.134;2023-03-23T00:53:47;14.10;99.90
3300;DHT22;1662;49.310;8.134;2023-03-23T00:56:13;14.10;99.90
3300;DHT22;1662;49.310;8.134;2023-03-23T00:58:39;14.30;99.90
3300;DHT22;1662;49.310;8.134;2023-03-23T01:01:05;14.40;99.90
3300;DHT22;1662;49.310;8.134;2023-03-23T01:03:31;14.40;99.90
3300;DHT22;1662;49.310;8.134;2023-03-23T01:05:56;14.40;99.90
3300;DHT22;1662;49.310;8.134;2023-03-23T01:08:23;14.40;99.90
3300;DHT22;1662;49.310;8.134;2023-03-23T01:10:50;14.50;99.90
3300;DHT22;1662;49.310;8.134;2023-03-23T01:13:16;14.40;99.90
3300;DHT22;1662;49.310;8.134;2023-03-23T01:15:42;14.40;99.90
3300;DHT22;1662;49.310;8.134;2023-03-23T01:18:09;14.40;99.90
3300;DHT22;1662;49.310;8.134;2023-03-23T01:20:36;14.40;99.90
3300;DHT22;1662;49.310;8.134;2023-03-23T01:23:02;14.50;99.90
3300;DHT22;1662;49.310;8.134;2023-03-23T01:25:29;14.50;99.90
3300;DHT22;1662;49.310;8.134;2023-03-23T01:27:58;14.50;99.90
3300;DHT22;1662;49.310;8.134;2023-03-23T01:30:24;14.50;99.90
3300;DHT22;1662;49.310;8.134;2023-03-23T01:32:51;14.60;99.90
3300;DHT22;1662;49.310;8.134;2023-03-23T01:35:17;14.60;99.90
3300;DHT22;1662;49.310;8.134;2023-03-23T01:37:42;14.50;99.90
3300;DHT22;1662;49.310;8.134;2023-03-23T01:40:09;14.40;99.90
3300;DHT22;1662;49.310;8.134;2023-03-23T01:42:37;14.50;99.90
3300;DHT22;1662;49.310;8.134;2023-03-23T01:45:31;14.60;99.90
3300;DHT22;1662;49.310;8.134;2023-03-23T01:48:14;14.70;99.90
3300;DHT22;1662;49.310;8.134;2023-03-23T01:51:02;14.60;99.90
3300;DHT22;1662;49.310;8.134;2023-03-23T01:53:48;14.50;99.90
3300;DHT22;1662;49.310;8.134;2023-03-23T01:56:17;14.40;99.90
3300;DHT22;1662;49.310;8.134;2023-03-23T01:58:46;14.30;99.90
3300;DHT22;1662;49.310;8.134;2023-03-23T02:01:13;14.20;99.90
3300;DHT22;1662;49.310;8.134;2023-03-23T02:03:42;14.10;99.90
3300;DHT22;1662;49.310;8.134;2023-03-23T02:06:09;14.10;99.90
3300;DHT22;1662;49.310;8.134;2023-03-23T02:08:35;14.20;99.90
3300;DHT22;1662;49.310;8.134;2023-03-23T02:11:08;14.10;99.90
3300;DHT22;1662;49.310;8.134;2023-03-23T02:13:36;14.10;99.90
3300;DHT22;1662;49.310;8.134;2023-03-23T02:19:19;14.10;99.90
3300;DHT22;1662;49.310;8.134;2023-03-23T02:35:54;13.70;99.90
3300;DHT22;1662;49.310;8.134;2023-03-23T02:38:32;13.70;99.90
3300;DHT22;1662;49.310;8.134;2023-03-23T02:41:02;13.70;99.90
3300;DHT22;1662;49.310;8.134;2023-03-23T02:43:33;13.60;99.90
3300;DHT22;1662;49.310;8.134;2023-03-23T02:46:01;13.70;99.90
3300;DHT22;1662;49.310;8.134;2023-03-23T02:48:34;13.70;99.90
3300;DHT22;1662;49.310;8.134;2023-03-23T02:51:02;13.90;99.90
3300;DHT22;1662;49.310;8.134;2023-03-23T02:53:33;13.90;99.90
3300;DHT22;1662;49.310;8.134;2023-03-23T02:56:06;13.80;99.90
3300;DHT22;1662;49.310;8.134;2023-03-23T02:58:33;13.80;99.90
3300;DHT22;1662;49.310;8.134;2023-03-23T03:00:58;13.70;99.90
3300;DHT22;1662;49.310;8.134;2023-03-23T03:03:28;13.60;99.90
3300;DHT22;1662;49.310;8.134;2023-03-23T03:08:48;13.50;99.90
3300;DHT22;1662;49.310;8.134;2023-03-23T03:11:17;13.50;99.90
3300;DHT22;1662;49.310;8.134;2023-03-23T03:16:49;13.40;99.90
3300;DHT22;1662;49.310;8.134;2023-03-23T03:19:29;13.50;99.90
3300;DHT22;1662;49.310;8.134;2023-03-23T03:21:58;13.50;99.90
3300;DHT22;1662;49.310;8.134;2023-03-23T03:24:26;13.50;99.90
3300;DHT22;1662;49.310;8.134;2023-03-23T03:26:56;13.60;99.90
3300;DHT22;1662;49.310;8.134;2023-03-23T03:29:32;13.60;99.90
3300;DHT22;1662;49.310;8.134;2023-03-23T03:32:01;13.50;99.90
3300;DHT22;1662;49.310;8.134;2023-03-23T03:34:30;13.50;99.90
3300;DHT22;1662;49.310;8.134;2023-03-23T03:36:58;13.50;99.90
3300;DHT22;1662;49.310;8.134;2023-03-23T03:39:26;13.40;99.90
3300;DHT22;1662;49.310;8.134;2023-03-23T03:41:52;13.40;99.90
3300;DHT22;1662;49.310;8.134;2023-03-23T03:44:18;13.40;99.90
3300;DHT22;1662;49.310;8.134;2023-03-23T03:46:43;13.30;99.90
3300;DHT22;1662;49.310;8.134;2023-03-23T03:49:12;13.30;99.90
3300;DHT22;1662;49.310;8.134;2023-03-23T03:51:41;13.30;99.90
3300;DHT22;1662;49.310;8.134;2023-03-23T03:54:09;13.30;99.90
3300;DHT22;1662;49.310;8.134;2023-03-23T03:56:36;13.20;99.90
3300;DHT22;1662;49.310;8.134;2023-03-23T03:59:06;13.30;99.90
3300;DHT22;1662;49.310;8.134;2023-03-23T04:01:33;13.20;99.90
3300;DHT22;1662;49.310;8.134;2023-03-23T04:03:59;13.30;99.90
3300;DHT22;1662;49.310;8.134;2023-03-23T04:06:25;13.20;99.90
3300;DHT22;1662;49.310;8.134;2023-03-23T04:08:54;13.20;99.90
3300;DHT22;1662;49.310;8.134;2023-03-23T04:11:20;13.30;99.90
3300;DHT22;1662;49.310;8.134;2023-03-23T04:13:46;13.20;99.90
3300;DHT22;1662;49.310;8.134;2023-03-23T04:16:12;13.30;99.90
3300;DHT22;1662;49.310;8.134;2023-03-23T04:18:37;13.30;99.90
3300;DHT22;1662;49.310;8.134;2023-03-23T04:21:04;13.30;99.90
3300;DHT22;1662;49.310;8.134;2023-03-23T04:23:33;13.30;99.90
3300;DHT22;1662;49.310;8.134;2023-03-23T04:26:01;13.40;99.90
3300;DHT22;1662;49.310;8.134;2023-03-23T04:28:26;13.40;99.90
3300;DHT22;1662;49.310;8.134;2023-03-23T04:30:53;13.30;99.90
3300;DHT22;1662;49.310;8.134;2023-03-23T04:33:24;13.30;99.90
3300;DHT22;1662;49.310;8.134;2023-03-23T04:35:51;13.30;99.90
3300;DHT22;1662;49.310;8.134;2023-03-23T04:38:19;13.30;99.90
3300;DHT22;1662;49.310;8.134;2023-03-23T04:40:49;13.40;99.90
3300;DHT22;1662;49.310;8.134;2023-03-23T04:43:22;13.50;99.90
3300;DHT22;1662;49.310;8.134;2023-03-23T04:45:57;13.50;99.90
3300;DHT22;1662;49.310;8.134;2023-03-23T04:48:24;13.50;99.90
3300;DHT22;1662;49.310;8.134;2023-03-23T04:50:51;13.60;99.90
3300;DHT22;1662;49.310;8.134;2023-03-23T04:53:17;13.50;99.90
3300;DHT22;1662;49.310;8.134;2023-03-23T04:55:44;13.50;99.90
3300;DHT22;1662;49.310;8.134;2023-03-23T04:58:09;13.50;99.90
3300;DHT22;1662;49.310;8.134;2023-03-23T05:00:37;13.60;99.90
3300;DHT22;1662;49.310;8.134;2023-03-23T05:03:03;13.70;99.90
3300;DHT22;1662;49.310;8.134;2023-03-23T05:05:29;13.70;99.90
3300;DHT22;1662;49.310;8.134;2023-03-23T05:07:56;13.60;99.90
3300;DHT22;1662;49.310;8.134;2023-03-23T05:10:23;13.60;99.90
3300;DHT22;1662;49.310;8.134;2023-03-23T05:12:48;13.60;99.90
3300;DHT22;1662;49.310;8.134;2023-03-23T05:15:15;13.60;99.90
3300;DHT22;1662;49.310;8.134;2023-03-23T05:17:42;13.60;99.90
3300;DHT22;1662;49.310;8.134;2023-03-23T05:20:13;13.60;99.90
3300;DHT22;1662;49.310;8.134;2023-03-23T05:22:41;13.60;99.90
3300;DHT22;1662;49.310;8.134;2023-03-23T05:25:08;13.70;99.90
3300;DHT22;1662;49.310;8.134;2023-03-23T05:27:37;13.60;99.90
3300;DHT22;1662;49.310;8.134;2023-03-23T05:30:06;13.60;99.90
3300;DHT22;1662;49.310;8.134;2023-03-23T05:32:32;13.60;99.90
3300;DHT22;1662;49.310;8.134;2023-03-23T05:35:01;13.50;99.90
3300;DHT22;1662;49.310;8.134;2023-03-23T05:37:29;13.60;99.90
3300;DHT22;1662;49.310;8.134;2023-03-23T05:39:58;13.70;99.90
3300;DHT22;1662;49.310;8.134;2023-03-23T05:42:30;13.60;99.90
3300;DHT22;1662;49.310;8.134;2023-03-23T05:44:56;13.60;99.90
3300;DHT22;1662;49.310;8.134;2023-03-23T05:47:22;13.60;99.90
3300;DHT22;1662;49.310;8.134;2023-03-23T05:49:48;13.60;99.90
3300;DHT22;1662;49.310;8.134;2023-03-23T05:52:14;13.50;99.90
3300;DHT22;1662;49.310;8.134;2023-03-23T05:54:39;13.60;99.90
3300;DHT22;1662;49.310;8.134;2023-03-23T05:57:06;13.70;99.90
3300;DHT22;1662;49.310;8.134;2023-03-23T05:59:34;13.60;99.90
3300;DHT22;1662;49.310;8.134;2023-03-23T06:02:00;13.60;99.90
3300;DHT22;1662;49.310;8.134;2023-03-23T06:04:26;13.70;99.90
3300;DHT22;1662;49.310;8.134;2023-03-23T06:06:52;13.50;99.90
3300;DHT22;1662;49.310;8.134;2023-03-23T06:09:18;13.50;99.90
3300;DHT22;1662;49.310;8.134;2023-03-23T06:11:44;13.40;99.90
3300;DHT22;1662;49.310;8.134;2023-03-23T06:14:10;13.40;99.90
3300;DHT22;1662;49.310;8.134;2023-03-23T06:16:37;13.40;99.90
3300;DHT22;1662;49.310;8.134;2023-03-23T06:19:02;13.40;99.90
3300;DHT22;1662;49.310;8.134;2023-03-23T06:21:30;13.50;99.90
3300;DHT22;1662;49.310;8.134;2023-03-23T06:23:56;13.40;99.90
3300;DHT22;1662;49.310;8.134;2023-03-23T06:26:27;13.40;99.90
3300;DHT22;1662;49.310;8.134;2023-03-23T06:28:54;13.50;99.90
3300;DHT22;1662;49.310;8.134;2023-03-23T06:31:20;13.60;99.90
3300;DHT22;1662;49.310;8.134;2023-03-23T06:33:45;13.60;99.90
3300;DHT22;1662;49.310;8.134;2023-03-23T06:36:12;13.60;99.90
3300;DHT22;1662;49.310;8.134;2023-03-23T06:38:38;13.60;99.90
3300;DHT22;1662;49.310;8.134;2023-03-23T06:41:06;13.50;99.90
3300;DHT22;1662;49.310;8.134;2023-03-23T06:43:34;13.50;99.90
3300;DHT22;1662;49.310;8.134;2023-03-23T06:46:05;13.50;99.90
3300;DHT22;1662;49.310;8.134;2023-03-23T06:48:31;13.50;99.90
3300;DHT22;1662;49.310;8.134;2023-03-23T06:50:57;13.50;99.90
3300;DHT22;1662;49.310;8.134;2023-03-23T06:53:25;13.30;99.90
3300;DHT22;1662;49.310;8.134;2023-03-23T06:55:51;13.30;99.90
3300;DHT22;1662;49.310;8.134;2023-03-23T06:58:16;13.20;99.90
3300;DHT22;1662;49.310;8.134;2023-03-23T07:00:42;13.20;99.90
3300;DHT22;1662;49.310;8.134;2023-03-23T07:03:08;13.10;99.90
3300;DHT22;1662;49.310;8.134;2023-03-23T07:05:34;13.10;99.90
3300;DHT22;1662;49.310;8.134;2023-03-23T07:08:01;13.10;99.90
3300;DHT22;1662;49.310;8.134;2023-03-23T07:10:27;13.10;99.90
3300;DHT22;1662;49.310;8.134;2023-03-23T07:12:53;13.10;99.90
3300;DHT22;1662;49.310;8.134;2023-03-23T07:15:19;13.10;99.90
3300;DHT22;1662;49.310;8.134;2023-03-23T07:17:45;13.00;99.90
3300;DHT22;1662;49.310;8.134;2023-03-23T07:20:12;12.90;99.90
3300;DHT22;1662;49.310;8.134;2023-03-23T07:22:38;13.00;99.90
3300;DHT22;1662;49.310;8.134;2023-03-23T07:25:04;12.90;99.90
3300;DHT22;1662;49.310;8.134;2023-03-23T07:27:30;12.90;99.90
3300;DHT22;1662;49.310;8.134;2023-03-23T07:29:56;12.80;99.90
3300;DHT22;1662;49.310;8.134;2023-03-23T07:32:23;12.70;99.90
3300;DHT22;1662;49.310;8.134;2023-03-23T07:34:49;12.80;99.90
3300;DHT22;1662;49.310;8.134;2023-03-23T07:37:15;12.80;99.90
3300;DHT22;1662;49.310;8.134;2023-03-23T07:39:41;12.80;99.90
3300;DHT22;1662;49.310;8.134;2023-03-23T07:42:08;12.70;99.90
3300;DHT22;1662;49.310;8.134;2023-03-23T07:44:33;12.80;99.90
3300;DHT22;1662;49.310;8.134;2023-03-23T07:46:59;12.90;99.90
3300;DHT22;1662;49.310;8.134;2023-03-23T07:49:25;12.90;99.90
3300;DHT22;1662;49.310;8.134;2023-03-23T07:51:52;12.90;99.90
3300;DHT22;1662;49.310;8.134;2023-03-23T07:54:18;12.90;99.90
3300;DHT22;1662;49.310;8.134;2023-03-23T07:56:44;12.90;99.90
3300;DHT22;1662;49.310;8.134;2023-03-23T07:59:10;13.00;99.90
3300;DHT22;1662;49.310;8.134;2023-03-23T08:01:36;12.90;99.90
3300;DHT22;1662;49.310;8.134;2023-03-23T08:04:02;12.90;99.90
3300;DHT22;1662;49.310;8.134;2023-03-23T08:06:28;13.00;99.90
3300;DHT22;1662;49.310;8.134;2023-03-23T08:08:54;13.00;99.90
3300;DHT22;1662;49.310;8.134;2023-03-23T08:11:20;13.00;99.90
3300;DHT22;1662;49.310;8.134;2023-03-23T08:13:46;13.00;99.90
3300;DHT22;1662;49.310;8.134;2023-03-23T08:16:12;13.00;99.90
3300;DHT22;1662;49.310;8.134;2023-03-23T08:18:39;13.00;99.90
3300;DHT22;1662;49.310;8.134;2023-03-23T08:21:06;12.90;99.90
3300;DHT22;1662;49.310;8.134;2023-03-23T08:23:35;12.90;99.90
3300;DHT22;1662;49.310;8.134;2023-03-23T08:26:04;13.10;99.90
3300;DHT22;1662;49.310;8.134;2023-03-23T08:28:32;13.00;99.90
3300;DHT22;1662;49.310;8.134;2023-03-23T08:30:57;13.00;99.90
3300;DHT22;1662;49.310;8.134;2023-03-23T08:33:23;13.10;99.90
3300;DHT22;1662;49.310;8.134;2023-03-23T08:35:58;13.10;99.90
3300;DHT22;1662;49.310;8.134;2023-03-23T08:38:24;13.10;99.90
3300;DHT22;1662;49.310;8.134;2023-03-23T08:40:50;13.10;99.90
3300;DHT22;1662;49.310;8.134;2023-03-23T08:43:17;13.20;99.90
3300;DHT22;1662;49.310;8.134;2023-03-23T08:45:43;13.20;99.90
3300;DHT22;1662;49.310;8.134;2023-03-23T08:48:09;13.30;99.90
3300;DHT22;1662;49.310;8.134;2023-03-23T08:50:38;13.30;99.90
3300;DHT22;1662;49.310;8.134;2023-03-23T08:53:07;13.30;99.90
3300;DHT22;1662;49.310;8.134;2023-03-23T08:55:32;13.30;99.90
3300;DHT22;1662;49.310;8.134;2023-03-23T08:57:58;13.50;99.90
3300;DHT22;1662;49.310;8.134;2023-03-23T09:00:23;13.50;99.90
3300;DHT22;1662;49.310;8.134;2023-03-23T09:02:52;13.70;99.90
3300;DHT22;1662;49.310;8.134;2023-03-23T09:05:24;13.70;99.90
3300;DHT22;1662;49.310;8.134;2023-03-23T09:07:51;13.80;99.90
3300;DHT22;1662;49.310;8.134;2023-03-23T09:10:18;13.80;99.90
3300;DHT22;1662;49.310;8.134;2023-03-23T09:12:45;13.80;99.90
3300;DHT22;1662;49.310;8.134;2023-03-23T09:15:13;13.90;99.90
3300;DHT22;1662;49.310;8.134;2023-03-23T09:17:44;13.90;99.90
3300;DHT22;1662;49.310;8.134;2023-03-23T09:20:12;13.70;99.90
3300;DHT22;1662;49.310;8.134;2023-03-23T09:22:39;13.80;99.90
3300;DHT22;1662;49.310;8.134;2023-03-23T09:25:07;13.70;99.90
3300;DHT22;1662;49.310;8.134;2023-03-23T09:27:34;13.70;99.90
3300;DHT22;1662;49.310;8.134;2023-03-23T09:30:06;13.70;99.90
3300;DHT22;1662;49.310;8.134;2023-03-23T09:32:36;13.50;99.90
3300;DHT22;1662;49.310;8.134;2023-03-23T09:35:04;13.60;99.90
3300;DHT22;1662;49.310;8.134;2023-03-23T09:37:33;13.60;99.90
3300;DHT22;1662;49.310;8.134;2023-03-23T09:40:01;13.50;99.90
3300;DHT22;1662;49.310;8.134;2023-03-23T09:47:39;13.60;99.90
3300;DHT22;1662;49.310;8.134;2023-03-23T09:50:38;13.60;99.90
3300;DHT22;1662;49.310;8.134;2023-03-23T09:53:22;13.60;99.90
3300;DHT22;1662;49.310;8.134;2023-03-23T09:55:49;13.60;99.90
3300;DHT22;1662;49.310;8.134;2023-03-23T10:01:04;13.70;99.90
3300;DHT22;1662;49.310;8.134;2023-03-23T10:03:39;13.70;99.90
3300;DHT22;1662;49.310;8.134;2023-03-23T10:06:07;13.60;99.90
3300;DHT22;1662;49.310;8.134;2023-03-23T10:08:33;13.50;99.90
3300;DHT22;1662;49.310;8.134;2023-03-23T10:11:16;13.50;99.90
3300;DHT22;1662;49.310;8.134;2023-03-23T10:16:34;13.50;99.90
3300;DHT22;1662;49.310;8.134;2023-03-23T10:19:11;13.50;99.90
3300;DHT22;1662;49.310;8.134;2023-03-23T10:21:41;13.60;99.90
3300;DHT22;1662;49.310;8.134;2023-03-23T10:24:10;13.80;99.90
3300;DHT22;1662;49.310;8.134;2023-03-23T10:29:24;14.00;99.90
3300;DHT22;1662;49.310;8.134;2023-03-23T10:31:57;14.20;99.90
3300;DHT22;1662;49.310;8.134;2023-03-23T10:37:27;14.10;99.90
3300;DHT22;1662;49.310;8.134;2023-03-23T10:40:00;14.10;99.90
3300;DHT22;1662;49.310;8.134;2023-03-23T10:42:34;14.10;99.90
3300;DHT22;1662;49.310;8.134;2023-03-23T10:45:21;14.10;99.90
3300;DHT22;1662;49.310;8.134;2023-03-23T10:50:48;14.10;99.90
3300;DHT22;1662;49.310;8.134;2023-03-23T10:53:25;14.10;99.90
3300;DHT22;1662;49.310;8.134;2023-03-23T10:55:53;14.20;99.90
3300;DHT22;1662;49.310;8.134;2023-03-23T10:58:34;14.30;99.90
3300;DHT22;1662;49.310;8.134;2023-03-23T11:01:03;14.30;99.90
3300;DHT22;1662;49.310;8.134;2023-03-23T11:06:00;14.20;99.90
3300;DHT22;1662;49.310;8.134;2023-03-23T11:08:58;14.20;99.90
3300;DHT22;1662;49.310;8.134;2023-03-23T11:11:31;14.20;99.90
3300;DHT22;1662;49.310;8.134;2023-03-23T11:14:18;14.30;99.90
3300;DHT22;1662;49.310;8.134;2023-03-23T11:16:59;14.40;99.90
3300;DHT22;1662;49.310;8.134;2023-03-23T11:19:34;14.50;99.90
3300;DHT22;1662;49.310;8.134;2023-03-23T11:22:08;14.50;99.90
3300;DHT22;1662;49.310;8.134;2023-03-23T11:24:43;14.60;99.90
3300;DHT22;1662;49.310;8.134;2023-03-23T11:27:10;14.70;99.90
3300;DHT22;1662;49.310;8.134;2023-03-23T11:29:59;14.90;99.90
3300;DHT22;1662;49.310;8.134;2023-03-23T11:32:30;15.00;99.90
3300;DHT22;1662;49.310;8.134;2023-03-23T11:35:01;15.00;99.90
3300;DHT22;1662;49.310;8.134;2023-03-23T11:37:42;15.10;99.90
3300;DHT22;1662;49.310;8.134;2023-03-23T11:45:20;15.00;99.90
3300;DHT22;1662;49.310;8.134;2023-03-23T11:50:32;14.90;99.90
3300;DHT22;1662;49.310;8.134;2023-03-23T11:53:10;14.90;99.90
3300;DHT22;1662;49.310;8.134;2023-03-23T11:58:18;14.80;99.90
3300;DHT22;1662;49.310;8.134;2023-03-23T12:03:58;14.80;99.90
3300;DHT22;1662;49.310;8.134;2023-03-23T12:06:46;14.80;99.90
3300;DHT22;1662;49.310;8.134;2023-03-23T12:09:37;14.90;99.90
3300;DHT22;1662;49.310;8.134;2023-03-23T12:14:54;14.90;99.90
3300;DHT22;1662;49.310;8.134;2023-03-23T12:17:31;14.90;99.90
3300;DHT22;1662;49.310;8.134;2023-03-23T12:28:59;14.90;99.90
3300;DHT22;1662;49.310;8.134;2023-03-23T12:31:13;14.90;99.90
3300;DHT22;1662;49.310;8.134;2023-03-23T12:33:54;14.90;99.90
3300;DHT22;1662;49.310;8.134;2023-03-23T12:36:49;15.00;99.90
3300;DHT22;1662;49.310;8.134;2023-03-23T12:44:53;15.40;99.90
3300;DHT22;1662;49.310;8.134;2023-03-23T12:47:39;15.40;99.90
3300;DHT22;1662;49.310;8.134;2023-03-23T12:50:15;15.40;99.90
3300;DHT22;1662;49.310;8.134;2023-03-23T12:53:04;15.40;99.90
3300;DHT22;1662;49.310;8.134;2023-03-23T12:55:40;15.40;99.90
3300;DHT22;1662;49.310;8.134;2023-03-23T12:58:17;15.30;99.90
3300;DHT22;1662;49.310;8.134;2023-03-23T13:01:09;15.30;99.90
3300;DHT22;1662;49.310;8.134;2023-03-23T13:06:15;15.70;99.90
3300;DHT22;1662;49.310;8.134;2023-03-23T13:08:49;15.80;99.90
3300;DHT22;1662;49.310;8.134;2023-03-23T13:11:22;16.00;99.90
3300;DHT22;1662;49.310;8.134;2023-03-23T13:13:55;16.20;99.90
3300;DHT22;1662;49.310;8.134;2023-03-23T13:19:06;16.30;99.90
3300;DHT22;1662;49.310;8.134;2023-03-23T13:22:00;16.40;99.90
3300;DHT22;1662;49.310;8.134;2023-03-23T13:24:29;16.60;99.90
3300;DHT22;1662;49.310;8.134;2023-03-23T13:26:56;16.50;99.90
3300;DHT22;1662;49.310;8.134;2023-03-23T13:29:24;16.50;99.90
3300;DHT22;1662;49.310;8.134;2023-03-23T13:32:10;16.30;99.90
3300;DHT22;1662;49.310;8.134;2023-03-23T13:34:36;16.10;99.90
3300;DHT22;1662;49.310;8.134;2023-03-23T13:37:09;16.10;99.90
3300;DHT22;1662;49.310;8.134;2023-03-23T13:40:11;15.90;99.90
3300;DHT22;1662;49.310;8.134;2023-03-23T13:42:49;15.70;99.90
3300;DHT22;1662;49.310;8.134;2023-03-23T13:46:06;15.50;99.90
3300;DHT22;1662;49.310;8.134;2023-03-23T13:50:49;15.30;99.90
3300;DHT22;1662;49.310;8.134;2023-03-23T13:53:31;15.40;99.90
3300;DHT22;1662;49.310;8.134;2023-03-23T13:56:20;15.30;99.90
3300;DHT22;1662;49.310;8.134;2023-03-23T13:59:07;15.10;99.90
3300;DHT22;1662;49.310;8.134;2023-03-23T14:01:38;15.20;99.90
3300;DHT22;1662;49.310;8.134;2023-03-23T14:04:17;15.10;99.90
3300;DHT22;1662;49.310;8.134;2023-03-23T14:06:48;15.00;99.90
3300;DHT22;1662;49.310;8.134;2023-03-23T14:12:05;15.00;99.90
3300;DHT22;1662;49.310;8.134;2023-03-23T14:14:41;15.00;99.90
3300;DHT22;1662;49.310;8.134;2023-03-23T14:17:18;14.90;99.90
3300;DHT22;1662;49.310;8.134;2023-03-23T14:19:51;14.80;99.90
3300;DHT22;1662;49.310;8.134;2023-03-23T14:22:19;14.90;99.90
3300;DHT22;1662;49.310;8.134;2023-03-23T14:24:47;15.00;99.90
3300;DHT22;1662;49.310;8.134;2023-03-23T14:27:22;15.00;99.90
3300;DHT22;1662;49.310;8.134;2023-03-23T14:29:58;14.80;99.90
3300;DHT22;1662;49.310;8.134;2023-03-23T14:32:27;14.80;99.90
3300;DHT22;1662;49.310;8.134;2023-03-23T14:34:53;14.70;99.90
3300;DHT22;1662;49.310;8.134;2023-03-23T14:37:21;14.70;99.90
3300;DHT22;1662;49.310;8.134;2023-03-23T14:39:49;14.70;99.90
3300;DHT22;1662;49.310;8.134;2023-03-23T14:42:22;14.70;99.90
3300;DHT22;1662;49.310;8.134;2023-03-23T14:44:50;14.70;99.90
3300;DHT22;1662;49.310;8.134;2023-03-23T14:49:53;14.60;99.90
3300;DHT22;1662;49.310;8.134;2023-03-23T14:52:22;14.60;99.90
3300;DHT22;1662;49.310;8.134;2023-03-23T14:54:48;14.60;99.90
3300;DHT22;1662;49.310;8.134;2023-03-23T14:59:49;14.70;99.90
3300;DHT22;1662;49.310;8.134;2023-03-23T15:02:35;14.70;99.90
3300;DHT22;1662;49.310;8.134;2023-03-23T15:05:32;14.80;99.90
3300;DHT22;1662;49.310;8.134;2023-03-23T15:08:04;14.70;99.90
3300;DHT22;1662;49.310;8.134;2023-03-23T15:10:31;14.50;99.90
3300;DHT22;1662;49.310;8.134;2023-03-23T15:12:56;14.40;99.90
3300;DHT22;1662;49.310;8.134;2023-03-23T15:15:31;14.40;99.90
3300;DHT22;1662;49.310;8.134;2023-03-23T15:18:00;14.40;99.90
3300;DHT22;1662;49.310;8.134;2023-03-23T15:20:43;14.50;99.90
3300;DHT22;1662;49.310;8.134;2023-03-23T15:23:21;14.40;99.90
3300;DHT22;1662;49.310;8.134;2023-03-23T15:25:52;14.20;99.90
3300;DHT22;1662;49.310;8.134;2023-03-23T15:28:31;14.10;99.90
3300;DHT22;1662;49.310;8.134;2023-03-23T15:31:01;14.10;99.90
3300;DHT22;1662;49.310;8.134;2023-03-23T15:33:36;14.20;99.90
3300;DHT22;1662;49.310;8.134;2023-03-23T15:36:14;14.10;99.90
3300;DHT22;1662;49.310;8.134;2023-03-23T15:38:43;14.20;99.90
3300;DHT22;1662;49.310;8.134;2023-03-23T15:41:28;14.10;99.90
3300;DHT22;1662;49.310;8.134;2023-03-23T15:43:57;14.10;99.90
3300;DHT22;1662;49.310;8.134;2023-03-23T15:46:28;14.20;99.90
3300;DHT22;1662;49.310;8.134;2023-03-23T15:51:28;14.10;99.90
3300;DHT22;1662;49.310;8.134;2023-03-23T15:53:55;14.10;99.90
3300;DHT22;1662;49.310;8.134;2023-03-23T15:56:22;14.10;99.90
3300;DHT22;1662;49.310;8.134;2023-03-23T15:58:48;14.10;99.90
3300;DHT22;1662;49.310;8.134;2023-03-23T16:06:20;14.20;99.90
3300;DHT22;1662;49.310;8.134;2023-03-23T16:08:46;14.30;99.90
3300;DHT22;1662;49.310;8.134;2023-03-23T16:11:13;14.30;99.90
3300;DHT22;1662;49.310;8.134;2023-03-23T16:13:39;14.30;99.90
3300;DHT22;1662;49.310;8.134;2023-03-23T16:16:16;14.30;99.90
3300;DHT22;1662;49.310;8.134;2023-03-23T16:18:43;14.30;99.90
3300;DHT22;1662;49.310;8.134;2023-03-23T16:21:09;14.30;99.90
3300;DHT22;1662;49.310;8.134;2023-03-23T16:23:34;14.30;99.90
3300;DHT22;1662;49.310;8.134;2023-03-23T16:26:00;14.40;99.90
3300;DHT22;1662;49.310;8.134;2023-03-23T16:28:26;14.40;99.90
3300;DHT22;1662;49.310;8.134;2023-03-23T16:30:52;14.40;99.90
3300;DHT22;1662;49.310;8.134;2023-03-23T16:33:17;14.40;99.90
3300;DHT22;1662;49.310;8.134;2023-03-23T16:35:43;14.40;99.90
3300;DHT22;1662;49.310;8.134;2023-03-23T16:38:13;14.40;99.90
3300;DHT22;1662;49.310;8.134;2023-03-23T16:40:41;14.40;99.90
3300;DHT22;1662;49.310;8.134;2023-03-23T16:43:07;14.40;99.90
3300;DHT22;1662;49.310;8.134;2023-03-23T16:45:36;14.30;99.90
3300;DHT22;1662;49.310;8.134;2023-03-23T16:48:02;14.30;99.90
3300;DHT22;1662;49.310;8.134;2023-03-23T16:50:29;14.30;99.90
3300;DHT22;1662;49.310;8.134;2023-03-23T16:52:56;14.30;99.90
3300;DHT22;1662;49.310;8.134;2023-03-23T16:55:21;14.40;99.90
3300;DHT22;1662;49.310;8.134;2023-03-23T16:57:48;14.40;99.90
3300;DHT22;1662;49.310;8.134;2023-03-23T17:00:15;14.40;99.90
3300;DHT22;1662;49.310;8.134;2023-03-23T17:02:45;14.30;99.90
3300;DHT22;1662;49.310;8.134;2023-03-23T17:05:14;14.40;99.90
3300;DHT22;1662;49.310;8.134;2023-03-23T17:07:46;14.40;99.90
3300;DHT22;1662;49.310;8.134;2023-03-23T17:10:15;14.30;99.90
3300;DHT22;1662;49.310;8.134;2023-03-23T17:12:44;14.30;99.90
3300;DHT22;1662;49.310;8.134;2023-03-23T17:15:10;14.30;99.90
3300;DHT22;1662;49.310;8.134;2023-03-23T17:17:36;14.30;99.90
3300;DHT22;1662;49.310;8.134;2023-03-23T17:20:02;14.30;99.90
3300;DHT22;1662;49.310;8.134;2023-03-23T17:22:28;14.30;99.90
3300;DHT22;1662;49.310;8.134;2023-03-23T17:24:54;14.30;99.90
3300;DHT22;1662;49.310;8.134;2023-03-23T17:27:21;14.30;99.90
3300;DHT22;1662;49.310;8.134;2023-03-23T17:29:47;14.30;99.90
3300;DHT22;1662;49.310;8.134;2023-03-23T17:32:15;14.30;99.90
3300;DHT22;1662;49.310;8.134;2023-03-23T17:34:41;14.30;99.90
3300;DHT22;1662;49.310;8.134;2023-03-23T17:37:07;14.30;99.90
3300;DHT22;1662;49.310;8.134;2023-03-23T17:39:36;14.30;99.90
3300;DHT22;1662;49.310;8.134;2023-03-23T17:42:02;14.30;99.90
3300;DHT22;1662;49.310;8.134;2023-03-23T17:44:28;14.30;99.90
3300;DHT22;1662;49.310;8.134;2023-03-23T17:46:54;14.30;99.90
3300;DHT22;1662;49.310;8.134;2023-03-23T17:49:25;14.30;99.90
3300;DHT22;1662;49.310;8.134;2023-03-23T17:51:51;14.30;99.90
3300;DHT22;1662;49.310;8.134;2023-03-23T17:54:16;14.30;99.90
3300;DHT22;1662;49.310;8.134;2023-03-23T17:56:42;14.30;99.90
3300;DHT22;1662;49.310;8.134;2023-03-23T17:59:09;14.30;99.90
3300;DHT22;1662;49.310;8.134;2023-03-23T18:01:34;14.20;99.90